createdAt,value
2017-11-27T00:00:44.096Z,3.70
2017-11-27T00:05:45.801Z,3.70
2017-11-27T00:10:46.764Z,3.70
2017-11-27T00:15:48.474Z,3.70
2017-11-27T00:20:49.434Z,3.70
2017-11-27T00:25:50.390Z,3.70
2017-11-27T00:30:51.362Z,3.70
2017-11-27T00:35:52.328Z,3.80
2017-11-27T00:40:53.298Z,3.70
2017-11-27T00:45:54.262Z,3.70
2017-11-27T00:50:55.962Z,3.70
2017-11-27T00:55:57.676Z,3.70
2017-11-27T01:00:58.642Z,3.70
2017-11-27T01:06:00.342Z,3.80
2017-11-27T01:11:02.058Z,3.80
2017-11-27T01:16:03.045Z,3.70
2017-11-27T01:21:04.023Z,3.80
2017-11-27T01:26:04.975Z,3.80
2017-11-27T01:31:06.688Z,3.80
2017-11-27T01:36:07.667Z,3.70
2017-11-27T01:41:09.397Z,3.70
2017-11-27T01:46:10.362Z,3.60
2017-11-27T01:51:11.326Z,3.70
2017-11-27T01:56:13.019Z,3.60
2017-11-27T02:01:14.715Z,3.60
2017-11-27T02:06:16.415Z,3.60
2017-11-27T02:11:18.128Z,3.60
2017-11-27T02:16:19.821Z,3.60
2017-11-27T02:21:20.802Z,3.50
2017-11-27T02:26:22.512Z,3.50
2017-11-27T02:31:24.194Z,3.40
2017-11-27T02:36:25.907Z,3.40
2017-11-27T02:41:26.876Z,3.30
2017-11-27T02:46:28.575Z,3.20
2017-11-27T02:51:30.276Z,3.20
2017-11-27T02:56:31.971Z,3.20
2017-11-27T03:01:33.679Z,3.10
2017-11-27T03:06:35.376Z,3.20
2017-11-27T03:11:36.334Z,3.10
2017-11-27T03:16:37.294Z,3.10
2017-11-27T03:21:38.253Z,3.00
2017-11-27T03:26:39.226Z,2.90
2017-11-27T03:31:40.202Z,2.90
2017-11-27T03:36:41.177Z,2.80
2017-11-27T03:41:42.154Z,2.80
2017-11-27T03:46:43.110Z,2.80
2017-11-27T03:51:44.072Z,2.90
2017-11-27T03:56:45.037Z,2.90
2017-11-27T04:01:46.002Z,2.80
2017-11-27T04:06:46.962Z,2.80
2017-11-27T04:11:47.931Z,2.80
2017-11-27T04:16:49.650Z,2.70
2017-11-27T04:21:50.614Z,2.70
2017-11-27T04:26:52.318Z,2.70
2017-11-27T04:31:54.011Z,2.70
2017-11-27T04:36:55.712Z,2.80
2017-11-27T04:41:57.415Z,2.80
2017-11-27T04:46:58.387Z,2.70
2017-11-27T04:51:59.338Z,2.80
2017-11-27T04:57:00.305Z,2.90
2017-11-27T05:02:01.291Z,2.90
2017-11-27T05:07:02.262Z,2.90
2017-11-27T05:12:03.246Z,3.00
2017-11-27T05:17:04.231Z,3.00
2017-11-27T05:22:05.236Z,2.90
2017-11-27T05:27:06.235Z,2.80
2017-11-27T05:32:07.318Z,2.80
2017-11-27T05:37:08.406Z,2.80
2017-11-27T05:42:10.121Z,2.80
2017-11-27T05:47:11.823Z,2.80
2017-11-27T05:52:13.535Z,2.80
2017-11-27T05:57:14.599Z,2.70
2017-11-27T06:02:16.379Z,2.90
2017-11-27T06:07:17.356Z,2.80
2017-11-27T06:12:18.439Z,2.80
2017-11-27T06:17:19.418Z,2.80
2017-11-27T06:22:20.394Z,2.80
2017-11-27T06:27:21.411Z,2.80
2017-11-27T06:32:22.398Z,2.80
2017-11-27T06:37:23.489Z,2.80
2017-11-27T06:42:24.588Z,2.90
2017-11-27T06:47:25.658Z,2.90
2017-11-27T06:52:26.663Z,2.90
2017-11-27T06:57:27.659Z,2.90
2017-11-27T07:02:28.698Z,3.00
2017-11-27T07:07:30.502Z,2.90
2017-11-27T07:12:31.531Z,2.90
2017-11-27T07:17:32.539Z,2.90
2017-11-27T07:22:33.522Z,3.00
2017-11-27T07:27:34.619Z,2.90
2017-11-27T07:32:36.399Z,2.90
2017-11-27T07:37:43.598Z,2.80
2017-11-27T07:42:44.618Z,2.90
2017-11-27T07:47:45.776Z,2.90
2017-11-27T07:52:46.812Z,2.90
2017-11-27T07:57:47.902Z,2.80
2017-11-27T08:02:48.971Z,2.90
2017-11-27T08:07:50.706Z,3.10
2017-11-27T08:12:51.858Z,3.10
2017-11-27T08:17:53.646Z,3.20
2017-11-27T08:22:54.696Z,3.20
2017-11-27T08:27:55.709Z,3.30
2017-11-27T08:32:56.689Z,3.30
2017-11-27T08:37:57.702Z,3.30
2017-11-27T08:42:58.739Z,3.30
2017-11-27T08:47:59.755Z,3.40
2017-11-27T08:53:01.607Z,3.60
2017-11-27T08:58:02.667Z,3.50
2017-11-27T09:03:03.851Z,3.60
2017-11-27T09:08:04.890Z,3.80
2017-11-27T09:13:05.905Z,3.90
2017-11-27T09:18:07.719Z,3.80
2017-11-27T09:23:08.721Z,3.80
2017-11-27T09:28:09.830Z,3.80
2017-11-27T09:33:10.886Z,3.90
2017-11-27T09:38:11.933Z,3.80
2017-11-27T09:43:12.981Z,3.90
2017-11-27T09:48:14.049Z,3.90
2017-11-27T09:53:15.133Z,4.00
2017-11-27T09:58:16.299Z,4.00
2017-11-27T10:03:17.330Z,4.00
2017-11-27T10:08:18.406Z,4.10
2017-11-27T10:13:19.539Z,4.20
2017-11-27T10:18:20.617Z,4.20
2017-11-27T10:23:21.678Z,4.30
2017-11-27T10:28:23.527Z,4.30
2017-11-27T10:33:24.564Z,4.20
2017-11-27T10:38:25.655Z,4.30
2017-11-27T10:43:26.669Z,4.30
2017-11-27T10:48:27.879Z,4.30
2017-11-27T10:53:29.056Z,4.20
2017-11-27T10:58:30.108Z,4.30
2017-11-27T11:03:31.229Z,4.30
2017-11-27T11:08:32.313Z,4.20
2017-11-27T11:13:33.492Z,4.30
2017-11-27T11:18:34.570Z,4.20
2017-11-27T11:23:35.614Z,4.20
2017-11-27T11:28:36.690Z,4.30
2017-11-27T11:33:37.958Z,4.30
2017-11-27T11:38:38.982Z,4.40
2017-11-27T11:43:40.752Z,4.30
2017-11-27T11:48:41.856Z,4.30
2017-11-27T11:53:42.930Z,4.30
2017-11-27T11:58:43.919Z,4.40
2017-11-27T12:03:44.948Z,4.40
2017-11-27T12:08:46.003Z,4.40
2017-11-27T12:13:47.187Z,4.40
2017-11-27T12:18:48.220Z,4.50
2017-11-27T12:23:49.435Z,4.50
2017-11-27T12:28:50.533Z,4.40
2017-11-27T12:33:52.286Z,4.50
2017-11-27T12:38:53.410Z,4.40
2017-11-27T12:43:54.491Z,4.50
2017-11-27T12:48:56.555Z,4.50
2017-11-27T12:53:57.583Z,4.60
2017-11-27T12:58:58.794Z,4.60
2017-11-27T13:03:59.823Z,4.60
2017-11-27T13:09:00.811Z,4.60
2017-11-27T13:14:01.914Z,4.70
2017-11-27T13:19:02.931Z,4.70
2017-11-27T13:24:04.691Z,4.70
2017-11-27T13:29:05.695Z,4.70
2017-11-27T13:34:07.494Z,4.80
2017-11-27T13:39:09.287Z,4.90
2017-11-27T13:44:10.362Z,4.80
2017-11-27T13:49:11.372Z,4.90
2017-11-27T13:54:13.110Z,4.90
2017-11-27T13:59:14.158Z,4.90
2017-11-27T14:04:15.890Z,5.10
2017-11-27T14:09:16.974Z,5.00
2017-11-27T14:14:17.978Z,5.20
2017-11-27T14:19:19.082Z,5.20
2017-11-27T14:24:20.218Z,5.20
2017-11-27T14:29:21.399Z,5.20
2017-11-27T14:34:22.424Z,5.30
2017-11-27T14:39:23.430Z,5.20
2017-11-27T14:44:24.428Z,5.20
2017-11-27T14:49:26.171Z,5.30
2017-11-27T14:54:27.189Z,5.30
2017-11-27T14:59:28.286Z,5.30
2017-11-27T15:04:30.034Z,5.30
2017-11-27T15:09:31.106Z,5.30
2017-11-27T15:14:32.154Z,5.30
2017-11-27T15:19:33.911Z,5.30
2017-11-27T15:24:34.944Z,5.20
2017-11-27T15:29:36.699Z,5.20
2017-11-27T15:34:37.755Z,5.20
2017-11-27T15:39:38.938Z,5.40
2017-11-27T15:44:39.931Z,5.30
2017-11-27T15:49:40.995Z,5.30
2017-11-27T15:54:43.026Z,5.30
2017-11-27T15:59:44.144Z,5.30
2017-11-27T16:04:45.419Z,5.40
2017-11-27T16:09:46.518Z,5.40
2017-11-27T16:14:47.546Z,5.30
2017-11-27T16:19:48.595Z,5.30
2017-11-27T16:24:49.759Z,5.30
2017-11-27T16:29:50.775Z,5.30
2017-11-27T16:34:52.563Z,5.30
2017-11-27T16:39:53.694Z,5.30
2017-11-27T16:44:55.827Z,5.40
2017-11-27T16:49:56.811Z,5.40
2017-11-27T16:54:57.822Z,5.40
2017-11-27T16:59:58.971Z,5.40
2017-11-27T17:05:01.150Z,5.40
2017-11-27T17:10:03.002Z,5.50
2017-11-27T17:15:04.214Z,5.50
2017-11-27T17:20:05.213Z,5.50
2017-11-27T17:25:07.031Z,5.50
2017-11-27T17:30:08.086Z,5.40
2017-11-27T17:35:09.167Z,5.50
2017-11-27T17:40:10.218Z,5.50
2017-11-27T17:45:11.283Z,5.50
2017-11-27T17:50:12.312Z,5.50
2017-11-27T17:55:14.107Z,5.50
2017-11-27T18:00:15.909Z,5.50
2017-11-27T18:05:17.066Z,5.50
2017-11-27T18:10:18.100Z,5.50
2017-11-27T18:15:19.903Z,5.50
2017-11-27T18:20:21.727Z,5.50
2017-11-27T18:25:22.953Z,5.50
2017-11-27T18:30:24.025Z,5.50
2017-11-27T18:35:25.129Z,5.40
2017-11-27T18:40:26.264Z,5.40
2017-11-27T18:45:28.249Z,5.40
2017-11-27T18:50:29.471Z,5.30
2017-11-27T18:55:38.308Z,5.30
2017-11-27T19:00:40.167Z,5.30
2017-11-27T19:05:41.321Z,5.30
2017-11-27T19:10:42.359Z,5.30
2017-11-27T19:15:44.166Z,5.30
2017-11-27T19:20:45.299Z,5.30
2017-11-27T19:25:46.463Z,5.40
2017-11-27T19:30:47.450Z,5.30
2017-11-27T19:35:48.593Z,5.20
2017-11-27T19:40:49.678Z,5.30
2017-11-27T19:45:50.670Z,5.30
2017-11-27T19:50:52.472Z,5.40
2017-11-27T19:55:53.519Z,5.30
2017-11-27T20:00:54.498Z,5.40
2017-11-27T20:05:55.540Z,5.50
2017-11-27T20:10:56.948Z,5.50
2017-11-27T20:15:57.939Z,5.50
2017-11-27T20:20:59.805Z,5.60
2017-11-27T20:26:01.069Z,5.60
2017-11-27T20:31:02.228Z,5.60
2017-11-27T20:36:03.262Z,5.60
2017-11-27T20:41:04.527Z,5.50
2017-11-27T20:46:05.579Z,5.50
2017-11-27T20:51:06.619Z,5.60
2017-11-27T20:56:07.725Z,5.60
2017-11-27T21:01:09.338Z,5.60
2017-11-27T21:06:10.350Z,5.50
2017-11-27T21:11:11.355Z,5.50
2017-11-27T21:16:12.454Z,5.50
2017-11-27T21:21:13.435Z,5.50
2017-11-27T21:26:14.411Z,5.50
2017-11-27T21:31:15.406Z,5.50
2017-11-27T21:36:17.122Z,5.50
2017-11-27T21:41:18.092Z,5.40
2017-11-27T21:46:19.807Z,5.50
2017-11-27T21:51:20.772Z,5.40
2017-11-27T21:56:22.469Z,5.50
2017-11-27T22:01:24.170Z,5.50
2017-11-27T22:06:25.889Z,5.50
2017-11-27T22:11:26.850Z,5.50
2017-11-27T22:16:28.577Z,5.50
2017-11-27T22:21:29.560Z,5.50
2017-11-27T22:26:30.525Z,5.50
2017-11-27T22:31:32.242Z,5.50
2017-11-27T22:36:33.200Z,5.50
2017-11-27T22:41:34.917Z,5.50
2017-11-27T22:46:35.866Z,5.40
2017-11-27T22:51:36.825Z,5.50
2017-11-27T22:56:37.814Z,5.50
2017-11-27T23:01:39.228Z,5.60
2017-11-27T23:06:40.453Z,5.50
2017-11-27T23:11:41.440Z,5.50
2017-11-27T23:16:42.422Z,5.50
2017-11-27T23:21:43.414Z,5.50
2017-11-27T23:26:44.347Z,5.50
2017-11-27T23:31:46.019Z,5.60
2017-11-27T23:36:46.967Z,5.50
2017-11-27T23:41:47.922Z,5.50
2017-11-27T23:46:48.858Z,5.60
2017-11-27T23:51:49.786Z,5.60
2017-11-27T23:56:50.718Z,5.60
